Time;durP1;ratioP1;P1;durP2;ratioP2;P2;SDS_P1;SDS_P2;PMS_P1;PMS_P2;Temp;Humidity;BMP_temperature;BMP_pressure;BME280_temperature;BME280_humidity;BME280_pressure;Samples;Min_cycle;Max_cycle;Signal;HPM_P1;HPM_P2
2023/02/10 00:00:03;;;;;;;62.17;26.90;;;2.70;99.90;;;;;;5062723;28;20032;-38
2023/02/10 00:02:29;;;;;;;59.63;28.02;;;2.60;99.90;;;;;;5048063;28;20040;-39
2023/02/10 00:04:55;;;;;;;62.30;27.33;;;2.60;99.90;;;;;;5047969;28;20500;-39
2023/02/10 00:07:21;;;;;;;53.50;27.33;;;2.60;99.90;;;;;;5050770;28;20041;-39
2023/02/10 00:09:48;;;;;;;61.75;28.75;;;2.50;99.90;;;;;;5052923;28;20429;-40
2023/02/10 00:12:13;;;;;;;67.80;30.38;;;2.50;99.90;;;;;;5060659;28;20028;-38
2023/02/10 00:14:39;;;;;;;57.80;27.65;;;2.50;99.90;;;;;;5064061;28;20027;-39
2023/02/10 00:17:04;;;;;;;57.17;26.55;;;2.40;99.90;;;;;;5072501;28;20021;-39
2023/02/10 00:19:31;;;;;;;56.75;26.73;;;2.40;99.90;;;;;;5072537;28;20424;-38
2023/02/10 00:21:57;;;;;;;67.18;28.92;;;2.40;99.90;;;;;;5072801;28;20075;-40
2023/02/10 00:24:23;;;;;;;59.13;26.85;;;2.40;99.90;;;;;;5073170;28;20439;-39
2023/02/10 00:26:49;;;;;;;55.08;26.48;;;2.50;99.90;;;;;;5069794;28;20040;-40
2023/02/10 00:29:15;;;;;;;52.85;27.10;;;2.50;99.90;;;;;;5064514;28;20017;-39
2023/02/10 00:31:42;;;;;;;54.90;26.92;;;2.50;99.90;;;;;;5072674;28;20503;-39
2023/02/10 00:34:11;;;;;;;60.00;28.10;;;2.50;99.90;;;;;;5073150;28;20052;-39
2023/02/10 00:36:36;;;;;;;58.95;28.17;;;2.50;99.90;;;;;;5072255;28;20027;-39
2023/02/10 00:39:02;;;;;;;69.93;28.73;;;2.60;99.90;;;;;;5071215;28;20481;-39
2023/02/10 00:41:28;;;;;;;63.67;29.50;;;2.50;99.90;;;;;;5072519;28;20020;-40
2023/02/10 00:43:53;;;;;;;64.65;28.65;;;2.60;99.90;;;;;;5072292;28;20053;-38
2023/02/10 00:46:20;;;;;;;63.40;30.60;;;2.60;99.90;;;;;;5072129;28;20531;-39
2023/02/10 00:48:46;;;;;;;67.20;30.77;;;2.60;99.90;;;;;;5072434;28;20100;-39
2023/02/10 00:51:13;;;;;;;68.95;29.55;;;2.60;99.90;;;;;;5072316;28;20346;-39
2023/02/10 00:53:39;;;;;;;68.10;30.55;;;2.70;99.90;;;;;;5061250;28;20025;-39
2023/02/10 00:56:05;;;;;;;70.55;31.90;;;2.70;99.90;;;;;;5067648;28;20037;-38
2023/02/10 00:58:30;;;;;;;70.45;32.63;;;2.70;99.90;;;;;;5072496;28;20033;-39
2023/02/10 01:00:56;;;;;;;62.60;31.42;;;2.80;99.90;;;;;;5072638;28;20043;-39
2023/02/10 01:03:22;;;;;;;71.50;32.17;;;2.80;99.90;;;;;;5066192;28;20033;-39
2023/02/10 01:05:48;;;;;;;71.35;32.65;;;2.80;99.90;;;;;;5065070;28;20024;-39
2023/02/10 01:08:14;;;;;;;77.53;33.22;;;2.80;99.90;;;;;;5072156;28;20033;-39
2023/02/10 01:10:40;;;;;;;69.45;32.28;;;2.80;99.90;;;;;;5071028;28;20032;-39
2023/02/10 01:13:11;;;;;;;78.15;34.53;;;2.80;99.90;;;;;;5064409;28;20525;-39
2023/02/10 01:15:46;;;;;;;82.25;33.05;;;2.80;99.90;;;;;;5063356;28;20032;-39
2023/02/10 01:18:12;;;;;;;76.20;33.25;;;2.80;99.90;;;;;;5072022;28;20079;-39
2023/02/10 01:20:42;;;;;;;76.25;34.78;;;2.90;99.90;;;;;;5064072;28;20020;-39
2023/02/10 01:23:08;;;;;;;58.45;25.10;;;2.90;99.90;;;;;;5067787;28;20060;-39
2023/02/10 01:25:35;;;;;;;81.25;35.95;;;2.90;99.90;;;;;;5069514;28;20032;-39
2023/02/10 01:28:01;;;;;;;74.22;35.38;;;3.00;99.90;;;;;;5059654;28;20021;-39
2023/02/10 01:33:53;;;;;;;79.95;35.83;;;2.90;99.90;;;;;;5043883;28;20106;-38
2023/02/10 01:36:21;;;;;;;82.72;36.03;;;3.00;99.90;;;;;;5057408;28;20486;-38
2023/02/10 01:38:47;;;;;;;74.70;34.55;;;2.90;99.90;;;;;;5071328;28;20108;-39
2023/02/10 01:41:15;;;;;;;85.32;37.15;;;2.90;99.90;;;;;;5069836;28;20115;-38
2023/02/10 01:44:05;;;;;;;83.82;34.75;;;2.90;99.90;;;;;;5069132;28;20013;-39
2023/02/10 01:46:33;;;;;;;90.25;37.55;;;2.90;99.90;;;;;;5068764;28;20024;-39
2023/02/10 01:49:08;;;;;;;80.35;37.25;;;2.90;99.90;;;;;;5065992;28;20021;-38
2023/02/10 01:51:43;;;;;;;84.82;38.25;;;2.90;99.90;;;;;;5069052;28;20382;-39
2023/02/10 01:54:12;;;;;;;84.72;38.70;;;2.90;99.90;;;;;;5061724;28;20028;-38
2023/02/10 01:56:38;;;;;;;61.10;27.83;;;2.90;99.90;;;;;;5063111;28;20021;-38
2023/02/10 01:59:04;;;;;;;78.05;35.58;;;2.90;99.90;;;;;;5071047;28;20024;-38
2023/02/10 02:01:30;;;;;;;79.03;35.42;;;2.90;99.90;;;;;;5069950;28;20033;-38
2023/02/10 02:03:56;;;;;;;72.43;34.90;;;2.90;99.90;;;;;;5070018;28;20183;-39
2023/02/10 02:06:22;;;;;;;77.38;35.20;;;2.90;99.90;;;;;;5069489;28;20701;-39
2023/02/10 02:08:48;;;;;;;83.75;38.78;;;2.80;99.90;;;;;;5070889;28;20032;-39
2023/02/10 02:11:45;;;;;;;77.30;36.20;;;2.80;99.90;;;;;;5070728;28;20035;-39
2023/02/10 02:14:28;;;;;;;82.53;36.80;;;2.80;99.90;;;;;;5070887;28;20028;-38
2023/02/10 02:17:06;;;;;;;75.25;35.75;;;2.80;99.90;;;;;;5069515;28;20024;-38
2023/02/10 02:19:50;;;;;;;82.50;35.92;;;2.80;99.90;;;;;;5070785;28;20031;-37
2023/02/10 02:22:59;;;;;;;72.55;34.00;;;2.80;99.90;;;;;;5070114;28;20047;-39
2023/02/10 02:25:56;;;;;;;72.97;33.08;;;2.80;99.90;;;;;;5070746;28;20111;-38
2023/02/10 02:28:39;;;;;;;82.22;36.05;;;2.80;99.90;;;;;;5070647;28;20025;-37
2023/02/10 02:31:23;;;;;;;81.13;34.40;;;2.80;99.90;;;;;;5069691;28;20081;-38
2023/02/10 02:34:10;;;;;;;76.43;36.80;;;2.90;99.90;;;;;;5069239;28;20024;-38
2023/02/10 02:37:08;;;;;;;79.75;35.58;;;2.80;99.90;;;;;;5050627;28;20035;-38
2023/02/10 02:39:33;;;;;;;79.20;36.53;;;2.80;99.90;;;;;;5042087;28;20115;-38
2023/02/10 02:42:22;;;;;;;82.47;38.33;;;2.80;99.90;;;;;;5057487;28;20585;-38
2023/02/10 02:44:53;;;;;;;83.68;35.92;;;2.80;99.90;;;;;;5070460;28;20020;-38
2023/02/10 02:47:33;;;;;;;68.80;32.38;;;2.80;99.90;;;;;;5070344;28;20481;-37
2023/02/10 02:50:02;;;;;;;;;;;2.90;99.90;;;;;;5070630;28;20119;-38
2023/02/10 02:52:39;;;;;;;74.93;34.28;;;2.90;99.90;;;;;;5069461;28;19905;-39
2023/02/10 02:55:18;;;;;;;90.22;39.33;;;2.90;99.90;;;;;;5070082;28;20028;-38
2023/02/10 02:57:57;;;;;;;87.13;37.10;;;2.90;99.90;;;;;;5070224;28;20025;-38
2023/02/10 03:00:30;;;;;;;73.63;35.85;;;2.90;99.90;;;;;;5069913;28;20032;-39
2023/02/10 03:02:57;;;;;;;79.85;36.08;;;2.90;99.90;;;;;;5065454;28;20026;-39
2023/02/10 03:05:28;;;;;;;75.65;35.05;;;2.90;99.90;;;;;;5068245;28;20127;-39
2023/02/10 03:07:54;;;;;;;81.80;36.78;;;2.90;99.90;;;;;;5069914;28;20048;-39
2023/02/10 03:10:21;;;;;;;79.95;35.75;;;2.90;99.90;;;;;;5069680;28;20063;-39
2023/02/10 03:12:47;;;;;;;72.22;34.92;;;3.00;99.90;;;;;;5069241;28;20060;-39
2023/02/10 03:15:12;;;;;;;77.80;35.95;;;3.00;99.90;;;;;;5069119;28;20628;-39
2023/02/10 03:17:39;;;;;;;80.85;35.55;;;3.00;99.90;;;;;;5069035;28;20382;-39
2023/02/10 03:20:06;;;;;;;80.32;37.67;;;3.00;99.90;;;;;;5069727;28;20024;-39
2023/02/10 03:22:32;;;;;;;80.68;36.05;;;3.00;99.90;;;;;;5068262;28;20063;-39
2023/02/10 03:24:57;;;;;;;82.68;39.78;;;2.90;99.90;;;;;;5069733;28;20059;-39
2023/02/10 03:27:23;;;;;;;81.40;37.00;;;2.90;99.90;;;;;;5069738;28;20031;-38
2023/02/10 03:29:49;;;;;;;80.88;37.25;;;3.00;99.90;;;;;;5061308;28;20621;-39
2023/02/10 03:32:15;;;;;;;82.70;38.63;;;2.90;99.90;;;;;;5067500;28;20024;-39
2023/02/10 03:34:42;;;;;;;83.55;37.67;;;2.90;99.90;;;;;;5068107;28;20028;-39
2023/02/10 03:37:07;;;;;;;85.90;41.83;;;3.00;99.90;;;;;;5068268;28;20430;-39
2023/02/10 03:39:33;;;;;;;78.38;37.25;;;3.00;99.90;;;;;;5068233;28;20024;-38
2023/02/10 03:41:58;;;;;;;79.22;37.63;;;3.10;99.90;;;;;;5067223;28;20021;-39
2023/02/10 03:44:24;;;;;;;73.18;35.83;;;3.10;99.90;;;;;;5067489;28;20569;-39
2023/02/10 03:46:49;;;;;;;77.80;37.22;;;3.10;99.90;;;;;;5067962;28;20470;-39
2023/02/10 03:49:15;;;;;;;85.47;38.50;;;3.10;99.90;;;;;;5067881;28;20105;-39
2023/02/10 03:51:40;;;;;;;93.15;40.35;;;3.10;99.90;;;;;;5067678;28;20032;-39
2023/02/10 03:54:06;;;;;;;81.15;37.83;;;3.10;99.90;;;;;;5067937;28;20599;-39
2023/02/10 03:56:32;;;;;;;87.00;38.38;;;3.20;99.90;;;;;;5066897;28;20047;-39
2023/02/10 03:59:00;;;;;;;85.18;38.28;;;3.20;99.90;;;;;;5069316;28;20050;-39
2023/02/10 04:01:26;;;;;;;76.90;39.70;;;3.10;99.90;;;;;;5067279;28;20021;-39
2023/02/10 04:03:52;;;;;;;93.80;39.47;;;3.20;99.90;;;;;;5068703;28;20385;-39
2023/02/10 04:06:17;;;;;;;83.47;38.60;;;3.20;99.90;;;;;;5069186;28;20478;-39
2023/02/10 04:08:43;;;;;;;87.55;39.70;;;3.20;99.90;;;;;;5068944;28;20020;-39
2023/02/10 04:11:09;;;;;;;81.05;39.08;;;3.20;99.90;;;;;;5069106;28;20035;-40
2023/02/10 04:13:36;;;;;;;85.55;39.40;;;3.10;99.90;;;;;;5068809;28;20107;-39
2023/02/10 04:16:03;;;;;;;86.20;39.17;;;3.00;99.90;;;;;;5064337;28;20021;-39
2023/02/10 04:18:29;;;;;;;91.22;40.65;;;3.10;99.90;;;;;;5067775;28;20044;-39
2023/02/10 04:20:55;;;;;;;96.50;39.35;;;3.10;99.90;;;;;;5068836;28;20052;-39
2023/02/10 04:23:20;;;;;;;78.55;38.92;;;3.10;99.90;;;;;;5068550;28;20537;-39
2023/02/10 04:25:46;;;;;;;84.18;39.95;;;3.10;99.90;;;;;;5069161;28;20017;-38
2023/02/10 04:28:11;;;;;;;83.57;40.45;;;3.10;99.90;;;;;;5067830;28;20470;-39
2023/02/10 04:30:37;;;;;;;94.47;39.95;;;3.10;99.90;;;;;;5067552;28;20039;-39
2023/02/10 04:33:02;;;;;;;92.25;39.70;;;3.10;99.90;;;;;;5067969;28;20033;-39
2023/02/10 04:35:28;;;;;;;85.95;39.53;;;3.10;99.90;;;;;;5067640;28;20024;-39
2023/02/10 04:37:53;;;;;;;88.53;40.03;;;3.10;99.90;;;;;;5068560;28;20438;-39
2023/02/10 04:40:19;;;;;;;85.22;41.70;;;3.20;99.90;;;;;;5066922;28;20481;-39
2023/02/10 04:42:44;;;;;;;89.38;41.92;;;3.20;99.90;;;;;;5068099;28;20051;-39
2023/02/10 04:45:10;;;;;;;87.07;39.15;;;3.10;99.90;;;;;;5068970;28;20021;-39
2023/02/10 04:47:35;;;;;;;82.50;39.15;;;3.10;99.90;;;;;;5067347;28;20444;-41
2023/02/10 04:50:01;;;;;;;78.10;39.20;;;3.10;99.90;;;;;;5067924;28;20099;-39
2023/02/10 04:52:26;;;;;;;88.68;39.50;;;3.10;99.90;;;;;;5067468;28;20056;-39
2023/02/10 04:54:52;;;;;;;86.40;38.70;;;3.10;99.90;;;;;;5071816;28;20131;-39
2023/02/10 04:57:17;;;;;;;79.72;38.42;;;3.10;99.90;;;;;;5071831;28;20035;-38
2023/02/10 04:59:43;;;;;;;81.55;36.45;;;3.20;99.90;;;;;;5071172;28;20150;-39
2023/02/10 05:02:09;;;;;;;79.97;39.30;;;3.10;99.90;;;;;;5067752;28;20457;-39
2023/02/10 05:04:34;;;;;;;88.28;39.53;;;3.10;99.90;;;;;;5071053;28;20102;-39
2023/02/10 05:07:00;;;;;;;82.60;38.42;;;3.10;99.90;;;;;;5071204;28;20017;-37
2023/02/10 05:09:27;;;;;;;88.30;39.38;;;3.10;99.90;;;;;;5072257;28;20056;-39
2023/02/10 05:11:52;;;;;;;86.47;37.17;;;3.10;99.90;;;;;;5071627;28;20420;-39
2023/02/10 05:14:18;;;;;;;84.38;37.60;;;3.10;99.90;;;;;;5072395;28;20025;-39
2023/02/10 05:16:44;;;;;;;74.97;36.28;;;3.20;99.90;;;;;;5072423;28;20025;-38
2023/02/10 05:19:09;;;;;;;80.32;36.83;;;3.20;99.90;;;;;;5072577;28;20035;-39
2023/02/10 05:21:35;;;;;;;86.22;38.22;;;3.20;99.90;;;;;;5071049;28;20393;-39
2023/02/10 05:24:01;;;;;;;77.78;36.13;;;3.20;99.90;;;;;;5070986;28;20078;-39
2023/02/10 05:26:27;;;;;;;82.32;37.17;;;3.10;99.90;;;;;;5072126;28;20021;-39
2023/02/10 05:28:52;;;;;;;75.57;37.38;;;3.10;99.90;;;;;;5070301;28;20645;-39
2023/02/10 05:31:18;;;;;;;79.15;37.70;;;3.20;99.90;;;;;;5063514;28;20029;-38
2023/02/10 05:33:43;;;;;;;83.28;38.22;;;3.20;99.90;;;;;;5069569;28;20484;-38
2023/02/10 05:36:09;;;;;;;71.85;34.90;;;3.20;99.90;;;;;;5071024;28;20027;-39
2023/02/10 05:38:35;;;;;;;87.15;37.97;;;3.20;99.90;;;;;;5071367;28;20023;-39
2023/02/10 05:41:01;;;;;;;82.60;36.65;;;3.20;99.90;;;;;;5071008;28;20020;-38
2023/02/10 05:43:27;;;;;;;77.00;36.30;;;3.20;99.90;;;;;;5070883;28;20047;-39
2023/02/10 05:45:52;;;;;;;84.97;37.97;;;3.20;99.90;;;;;;5071505;28;20021;-39
2023/02/10 05:48:18;;;;;;;76.57;34.35;;;3.20;99.90;;;;;;5071543;28;20027;-39
2023/02/10 05:50:43;;;;;;;84.53;38.10;;;3.20;99.90;;;;;;5071147;28;20100;-39
2023/02/10 05:53:09;;;;;;;79.32;36.83;;;3.20;99.90;;;;;;5070664;28;20051;-39
2023/02/10 05:55:35;;;;;;;96.00;35.70;;;3.40;99.90;;;;;;5070891;28;20025;-39
2023/02/10 05:58:00;;;;;;;80.53;36.40;;;3.30;99.90;;;;;;5069657;28;20563;-39
2023/02/10 06:00:26;;;;;;;80.88;37.72;;;3.30;99.90;;;;;;5070641;28;20035;-39
2023/02/10 06:02:51;;;;;;;70.28;34.75;;;3.30;99.90;;;;;;5070324;28;20025;-39
2023/02/10 06:05:17;;;;;;;74.93;33.83;;;3.30;99.90;;;;;;5070229;28;20020;-39
2023/02/10 06:07:42;;;;;;;77.85;35.45;;;3.30;99.90;;;;;;5069317;28;20020;-39
2023/02/10 06:10:08;;;;;;;78.57;35.25;;;3.40;99.90;;;;;;5071087;28;20013;-39
2023/02/10 06:12:33;;;;;;;79.15;36.45;;;3.40;99.90;;;;;;5070377;28;20040;-38
2023/02/10 06:14:59;;;;;;;77.38;35.13;;;3.40;99.90;;;;;;5070960;28;20021;-39
2023/02/10 06:17:26;;;;;;;81.93;33.08;;;3.50;99.90;;;;;;5070654;28;20020;-39
2023/02/10 06:19:51;;;;;;;83.10;36.47;;;3.50;99.90;;;;;;5070722;28;20587;-39
2023/02/10 06:22:17;;;;;;;84.10;35.97;;;3.40;99.90;;;;;;5069316;28;20119;-39
2023/02/10 06:24:42;;;;;;;73.32;35.20;;;3.40;99.90;;;;;;5070636;28;20102;-39
2023/02/10 06:27:08;;;;;;;70.47;33.38;;;3.40;99.90;;;;;;5070666;28;20032;-39
2023/02/10 06:29:33;;;;;;;73.65;34.85;;;3.50;99.90;;;;;;5069244;28;20017;-40
2023/02/10 06:31:59;;;;;;;68.95;33.58;;;3.40;99.90;;;;;;5069865;28;20031;-40
2023/02/10 06:34:24;;;;;;;70.53;33.90;;;3.40;99.90;;;;;;5070336;28;20020;-40
2023/02/10 06:36:50;;;;;;;67.80;32.42;;;3.40;99.90;;;;;;5069957;28;20029;-39
2023/02/10 06:39:15;;;;;;;69.60;33.00;;;3.50;99.90;;;;;;5067858;28;20703;-40
2023/02/10 06:41:41;;;;;;;71.63;33.58;;;3.40;99.90;;;;;;5068670;28;20111;-39
2023/02/10 06:44:07;;;;;;;74.97;34.85;;;3.50;99.90;;;;;;5069369;28;20074;-40
2023/02/10 06:46:33;;;;;;;67.75;33.90;;;3.40;99.90;;;;;;5069324;28;20025;-40
2023/02/10 06:48:59;;;;;;;70.55;32.25;;;3.40;99.90;;;;;;5069309;28;20017;-39
2023/02/10 06:51:25;;;;;;;67.88;30.52;;;3.50;99.90;;;;;;5068839;28;20062;-39
2023/02/10 06:53:51;;;;;;;72.55;32.78;;;3.50;99.90;;;;;;5070223;28;20042;-39
2023/02/10 06:56:16;;;;;;;71.30;32.97;;;3.50;99.90;;;;;;5070259;28;20036;-39
2023/02/10 06:58:42;;;;;;;74.10;34.20;;;3.50;99.90;;;;;;5070269;28;20508;-40
2023/02/10 07:01:09;;;;;;;77.47;34.20;;;3.50;99.90;;;;;;5062784;28;20085;-40
2023/02/10 07:03:35;;;;;;;69.05;33.17;;;3.50;99.90;;;;;;5068259;28;20543;-40
2023/02/10 07:06:00;;;;;;;88.70;36.15;;;3.50;99.90;;;;;;5069675;28;20111;-39
2023/02/10 07:08:26;;;;;;;68.55;33.50;;;3.60;99.90;;;;;;5069895;28;20021;-38
2023/02/10 07:10:51;;;;;;;72.32;33.40;;;3.60;99.90;;;;;;5068933;28;20029;-38
2023/02/10 07:13:17;;;;;;;74.00;33.15;;;3.50;99.90;;;;;;5070165;28;20025;-39
2023/02/10 07:15:42;;;;;;;77.70;34.35;;;3.50;99.90;;;;;;5070078;28;20024;-39
2023/02/10 07:18:08;;;;;;;73.63;33.78;;;3.50;99.90;;;;;;5068710;28;20024;-39
2023/02/10 07:20:34;;;;;;;71.68;34.05;;;3.60;99.90;;;;;;5069867;28;20672;-39
2023/02/10 07:22:59;;;;;;;67.22;33.22;;;3.60;99.90;;;;;;5069116;28;20020;-39
2023/02/10 07:25:25;;;;;;;71.97;31.00;;;3.60;99.90;;;;;;5070346;28;20021;-39
2023/02/10 07:27:50;;;;;;;72.95;32.72;;;3.70;99.90;;;;;;5070096;28;20043;-39
2023/02/10 07:30:16;;;;;;;66.35;30.20;;;3.60;99.90;;;;;;5062450;28;20020;-39
2023/02/10 07:32:44;;;;;;;65.68;31.25;;;3.60;99.90;;;;;;5066991;28;20040;-40
2023/02/10 07:35:10;;;;;;;65.85;31.83;;;3.70;99.90;;;;;;5069449;28;20012;-39
2023/02/10 07:37:36;;;;;;;65.70;32.28;;;3.70;99.90;;;;;;5069415;28;20051;-39
2023/02/10 07:40:01;;;;;;;68.78;34.45;;;3.70;99.90;;;;;;5069478;28;20398;-39
2023/02/10 07:42:27;;;;;;;73.40;32.95;;;3.70;99.90;;;;;;5068577;28;20086;-39
2023/02/10 07:44:52;;;;;;;66.20;32.83;;;3.70;99.90;;;;;;5068055;28;20082;-39
2023/02/10 07:47:18;;;;;;;67.78;32.17;;;3.70;99.90;;;;;;5068437;28;20013;-40
2023/02/10 07:49:43;;;;;;;70.05;32.38;;;3.70;99.90;;;;;;5067936;28;20016;-39
2023/02/10 07:52:09;;;;;;;80.60;34.67;;;3.70;99.90;;;;;;5067447;28;20021;-39
2023/02/10 07:54:35;;;;;;;65.50;33.03;;;3.80;99.90;;;;;;5069065;28;20103;-39
2023/02/10 07:57:01;;;;;;;70.82;33.78;;;3.80;99.90;;;;;;5069648;28;20032;-39
2023/02/10 07:59:26;;;;;;;73.97;34.13;;;3.80;99.90;;;;;;5069253;28;20397;-39
2023/02/10 08:01:52;;;;;;;66.65;30.10;;;3.80;99.90;;;;;;5067496;28;20025;-39
2023/02/10 08:04:18;;;;;;;62.35;29.88;;;3.90;99.90;;;;;;5069428;28;20013;-39
2023/02/10 08:06:44;;;;;;;60.88;31.48;;;3.90;99.90;;;;;;5068773;28;20076;-39
2023/02/10 08:09:09;;;;;;;64.05;31.27;;;3.90;99.90;;;;;;5068695;28;20066;-39
2023/02/10 08:11:35;;;;;;;73.88;33.75;;;3.90;99.90;;;;;;5068235;28;20398;-39
2023/02/10 08:14:02;;;;;;;70.25;31.60;;;3.90;99.90;;;;;;5068238;28;20037;-39
2023/02/10 08:16:27;;;;;;;69.80;31.15;;;3.90;99.90;;;;;;5068853;28;20554;-39
2023/02/10 08:18:53;;;;;;;79.10;34.75;;;3.90;99.90;;;;;;5067786;28;20115;-39
2023/02/10 08:21:18;;;;;;;68.80;30.83;;;4.00;99.90;;;;;;5068725;28;20028;-39
2023/02/10 08:23:45;;;;;;;69.05;31.88;;;4.10;99.90;;;;;;5068341;28;20385;-39
2023/02/10 08:26:12;;;;;;;68.65;34.15;;;4.10;99.90;;;;;;5067676;28;20016;-39
2023/02/10 08:28:39;;;;;;;65.07;32.28;;;4.20;99.90;;;;;;5070238;28;20024;-39
2023/02/10 08:31:06;;;;;;;65.63;31.92;;;4.10;99.90;;;;;;5072250;28;20016;-39
2023/02/10 08:33:36;;;;;;;69.47;32.88;;;4.10;99.90;;;;;;5071987;28;20055;-39
2023/02/10 08:36:09;;;;;;;80.70;34.92;;;4.10;99.90;;;;;;5073028;28;20075;-39
2023/02/10 08:38:35;;;;;;;63.97;31.73;;;4.10;99.90;;;;;;5073015;28;20044;-39
2023/02/10 08:41:00;;;;;;;67.28;32.15;;;4.20;99.90;;;;;;5073104;28;20032;-39
2023/02/10 08:43:26;;;;;;;68.47;32.80;;;4.30;99.90;;;;;;5072661;28;20087;-39
2023/02/10 08:45:55;;;;;;;66.32;32.10;;;4.20;99.90;;;;;;5071641;28;20406;-39
2023/02/10 08:48:20;;;;;;;65.22;30.55;;;4.30;99.90;;;;;;5072564;28;20363;-39
2023/02/10 08:50:46;;;;;;;70.50;32.35;;;4.30;99.90;;;;;;5072882;28;20075;-39
2023/02/10 08:53:11;;;;;;;68.35;31.50;;;4.50;99.90;;;;;;5069448;28;20075;-39
2023/02/10 08:55:38;;;;;;;64.38;30.02;;;4.50;99.90;;;;;;5072854;28;20036;-39
2023/02/10 08:58:04;;;;;;;69.35;31.92;;;4.60;99.90;;;;;;5063929;28;20028;-39
2023/02/10 09:00:29;;;;;;;72.43;31.67;;;4.80;99.90;;;;;;5071444;28;20074;-39
2023/02/10 09:02:55;;;;;;;66.60;31.27;;;4.80;99.90;;;;;;5072194;28;20048;-39
2023/02/10 09:05:20;;;;;;;55.45;28.73;;;5.00;99.90;;;;;;5071389;28;20028;-39
2023/02/10 09:07:47;;;;;;;69.13;33.35;;;5.10;99.90;;;;;;5072585;28;20024;-39
2023/02/10 09:10:13;;;;;;;68.45;31.25;;;5.10;99.90;;;;;;5072801;28;20381;-39
2023/02/10 09:12:39;;;;;;;66.13;30.17;;;5.30;99.90;;;;;;5071866;28;20371;-40
2023/02/10 09:15:06;;;;;;;62.15;29.30;;;5.30;99.90;;;;;;5072627;28;20029;-39
2023/02/10 09:17:31;;;;;;;60.30;30.73;;;5.40;99.90;;;;;;5072401;28;20409;-39
2023/02/10 09:19:57;;;;;;;64.82;30.50;;;5.50;99.90;;;;;;5066768;28;20028;-39
2023/02/10 09:22:23;;;;;;;68.80;30.08;;;5.80;99.90;;;;;;5054248;28;20044;-39
2023/02/10 09:24:51;;;;;;;67.70;30.42;;;5.80;99.90;;;;;;5072533;28;20482;-39
2023/02/10 09:27:18;;;;;;;56.55;29.55;;;5.90;99.90;;;;;;5072433;28;20040;-40
2023/02/10 09:29:44;;;;;;;66.53;31.30;;;5.90;99.90;;;;;;5070047;28;20029;-40
2023/02/10 09:32:10;;;;;;;65.07;30.20;;;5.90;99.90;;;;;;5071856;28;20374;-40
2023/02/10 09:34:36;;;;;;;57.92;30.45;;;6.00;99.90;;;;;;5072120;28;20039;-40
2023/02/10 09:37:02;;;;;;;69.90;30.42;;;6.20;99.90;;;;;;5070915;28;20025;-40
2023/02/10 09:39:29;;;;;;;61.40;31.02;;;6.30;99.90;;;;;;5070829;28;20030;-40
2023/02/10 09:42:05;;;;;;;59.25;29.17;;;6.50;99.90;;;;;;5071404;28;20044;-40
2023/02/10 09:44:34;;;;;;;58.70;29.15;;;6.50;99.90;;;;;;5069920;28;20039;-40
2023/02/10 09:47:17;;;;;;;61.92;28.98;;;6.60;99.90;;;;;;5071524;28;20062;-40
2023/02/10 09:50:05;;;;;;;60.63;29.17;;;6.40;99.90;;;;;;5071877;28;20020;-43
2023/02/10 09:53:08;;;;;;;71.07;30.83;;;6.50;99.90;;;;;;5071202;28;20021;-40
2023/02/10 09:55:43;;;;;;;58.08;28.80;;;6.40;99.90;;;;;;5071852;28;20692;-40
2023/02/10 09:58:33;;;;;;;63.10;28.30;;;6.60;99.90;;;;;;5071842;28;20545;-38
2023/02/10 10:01:04;;;;;;;68.57;29.93;;;6.50;99.90;;;;;;5071524;28;20039;-39
2023/02/10 10:04:05;;;;;;;55.78;29.13;;;6.70;99.90;;;;;;5070066;28;20553;-39
2023/02/10 10:06:33;;;;;;;58.58;28.67;;;6.90;99.90;;;;;;5070265;28;20032;-39
2023/02/10 10:09:15;;;;;;;55.78;28.88;;;7.90;99.90;;;;;;5069884;28;20067;-40
2023/02/10 10:11:43;;;;;;;55.88;27.58;;;9.10;99.90;;;;;;5069139;28;20029;-40
2023/02/10 10:14:24;;;;;;;53.15;27.90;;;10.20;99.90;;;;;;5070242;28;20025;-40
2023/02/10 10:17:33;;;;;;;51.30;26.52;;;9.90;99.90;;;;;;5070131;28;20052;-40
2023/02/10 10:20:25;;;;;;;56.15;28.83;;;9.60;99.90;;;;;;5070766;28;20020;-38
2023/02/10 10:23:13;;;;;;;59.08;29.65;;;8.90;99.90;;;;;;5070388;28;20641;-40
2023/02/10 10:25:50;;;;;;;61.38;30.38;;;8.60;99.90;;;;;;5040075;28;20028;-38
2023/02/10 10:28:29;;;;;;;60.38;28.98;;;8.30;99.90;;;;;;5066486;28;20048;-40
2023/02/10 10:31:01;;;;;;;59.85;29.05;;;8.10;99.90;;;;;;5070330;28;20454;-40
2023/02/10 10:33:39;;;;;;;57.05;27.98;;;7.80;99.90;;;;;;5067540;28;20067;-40
2023/02/10 10:36:06;;;;;;;62.70;27.77;;;8.00;99.90;;;;;;5068165;28;20021;-39
2023/02/10 10:38:35;;;;;;;57.08;28.85;;;8.10;99.90;;;;;;5070612;28;20514;-41
2023/02/10 10:41:12;;;;;;;56.15;28.27;;;8.30;99.90;;;;;;5064921;28;20025;-38
2023/02/10 10:43:52;;;;;;;54.63;29.55;;;8.80;99.90;;;;;;5068682;28;20016;-38
2023/02/10 10:46:30;;;;;;;59.25;29.42;;;9.00;99.90;;;;;;5069299;28;20024;-39
2023/02/10 10:48:56;;;;;;;55.92;27.65;;;9.10;99.90;;;;;;5068831;28;20031;-39
2023/02/10 10:51:21;;;;;;;54.10;28.48;;;10.00;99.90;;;;;;5069839;28;20444;-39
2023/02/10 10:53:48;;;;;;;56.50;27.27;;;10.20;99.90;;;;;;5064895;28;20389;-39
2023/02/10 10:56:32;;;;;;;59.58;28.73;;;9.90;99.90;;;;;;5065874;28;20496;-39
2023/02/10 10:58:59;;;;;;;58.90;29.75;;;9.60;99.90;;;;;;5069844;28;20052;-39
2023/02/10 11:01:37;;;;;;;67.63;30.48;;;9.30;99.90;;;;;;5068574;28;20086;-39
2023/02/10 11:04:14;;;;;;;61.30;30.33;;;8.90;99.90;;;;;;5069632;28;20017;-39
2023/02/10 11:06:43;;;;;;;69.32;31.95;;;8.60;99.90;;;;;;5068937;28;20025;-39
2023/02/10 11:09:29;;;;;;;65.07;31.02;;;8.50;99.90;;;;;;5067814;28;20679;-39
2023/02/10 11:12:06;;;;;;;68.22;31.25;;;8.40;99.90;;;;;;5069499;28;20175;-39
2023/02/10 11:14:40;;;;;;;63.47;30.83;;;8.20;99.90;;;;;;5070377;28;20106;-39
2023/02/10 11:17:37;;;;;;;68.35;32.00;;;8.00;99.90;;;;;;5070600;28;20082;-39
2023/02/10 11:20:04;;;;;;;66.07;32.53;;;7.60;99.90;;;;;;5070109;28;20036;-39
2023/02/10 11:22:30;;;;;;;68.65;30.63;;;7.50;99.90;;;;;;5069693;28;20032;-39
2023/02/10 11:25:01;;;;;;;64.65;31.10;;;7.40;99.90;;;;;;5070095;28;20028;-39
2023/02/10 11:27:27;;;;;;;69.85;33.13;;;7.40;99.90;;;;;;5070419;28;20020;-40
2023/02/10 11:29:57;;;;;;;66.68;31.98;;;7.10;99.90;;;;;;5070419;28;20017;-39
2023/02/10 11:32:36;;;;;;;75.00;32.03;;;7.10;99.90;;;;;;5070002;28;20024;-39
2023/02/10 11:35:04;;;;;;;66.20;31.45;;;7.20;99.90;;;;;;5070027;28;20029;-39
2023/02/10 11:37:34;;;;;;;65.03;32.03;;;7.20;99.90;;;;;;5068903;28;20462;-39
2023/02/10 11:40:03;;;;;;;71.20;31.30;;;7.20;99.90;;;;;;5065172;28;20549;-39
2023/02/10 11:42:32;;;;;;;64.07;30.35;;;7.20;99.90;;;;;;5068421;28;20037;-39
2023/02/10 11:45:07;;;;;;;65.03;31.30;;;7.30;99.90;;;;;;5070355;28;20025;-39
2023/02/10 11:47:33;;;;;;;69.93;31.50;;;7.40;99.90;;;;;;5070235;28;20257;-40
2023/02/10 11:49:59;;;;;;;73.20;31.50;;;7.50;99.90;;;;;;5069989;28;20013;-39
2023/02/10 11:52:29;;;;;;;68.97;32.35;;;7.50;99.90;;;;;;5069885;28;20046;-41
2023/02/10 11:54:55;;;;;;;;;;;7.30;99.90;;;;;;5070724;28;20016;-39
2023/02/10 12:01:01;;;;;;;69.20;32.27;;;7.10;99.90;;;;;;5068653;28;20500;-39
2023/02/10 12:03:56;;;;;;;74.07;34.47;;;7.40;99.90;;;;;;5070704;28;20024;-39
2023/02/10 12:06:28;;;;;;;70.82;33.60;;;7.30;99.90;;;;;;5072887;28;20021;-39
2023/02/10 12:08:58;;;;;;;72.65;33.25;;;7.30;99.90;;;;;;5067627;28;20043;-39
2023/02/10 12:11:28;;;;;;;76.97;34.33;;;7.30;99.90;;;;;;5067530;28;20036;-38
2023/02/10 12:14:46;;;;;;;72.03;35.55;;;7.30;99.90;;;;;;5072377;28;20031;-42
2023/02/10 12:17:41;;;;;;;81.50;35.38;;;7.50;99.90;;;;;;5059017;28;20086;-39
2023/02/10 12:20:31;;;;;;;73.18;34.22;;;7.90;99.90;;;;;;5017144;28;20502;-39
2023/02/10 12:23:16;;;;;;;82.97;35.93;;;8.10;99.90;;;;;;5071552;28;20044;-39
2023/02/10 12:25:45;;;;;;;72.00;35.42;;;8.30;99.90;;;;;;5072361;28;20674;-39
2023/02/10 12:28:39;;;;;;;75.35;34.33;;;8.50;99.90;;;;;;5070491;28;20529;-39
2023/02/10 12:31:40;;;;;;;70.25;34.03;;;8.60;99.90;;;;;;5043322;28;20478;-39
2023/02/10 12:34:28;;;;;;;76.07;35.75;;;8.60;99.90;;;;;;5037818;28;20587;-39
2023/02/10 12:37:02;;;;;;;74.03;33.75;;;8.20;99.90;;;;;;5072294;28;20020;-39
2023/02/10 12:40:15;;;;;;;70.72;35.45;;;8.40;99.90;;;;;;5070683;28;20115;-39
2023/02/10 12:42:47;;;;;;;73.60;34.83;;;8.30;99.90;;;;;;5008401;28;20191;-40
2023/02/10 12:45:52;;;;;;;68.20;32.25;;;8.60;99.90;;;;;;5040336;28;20033;-40
2023/02/10 12:48:55;;;;;;;69.30;33.20;;;8.70;99.90;;;;;;5048690;28;20033;-39
2023/02/10 12:51:50;;;;;;;65.38;31.38;;;8.50;99.90;;;;;;5070684;28;20039;-39
2023/02/10 12:54:33;;;;;;;68.88;32.20;;;8.40;99.90;;;;;;5071527;28;20027;-39
2023/02/10 12:57:04;;;;;;;65.70;30.50;;;8.40;99.90;;;;;;5071314;28;20078;-39
2023/02/10 12:59:57;;;;;;;68.85;31.45;;;8.50;99.90;;;;;;5071304;28;20070;-39